createdAt,value
2022-08-11T00:01:28.282Z,14.80
2022-08-11T00:04:00.771Z,14.70
2022-08-11T00:06:38.440Z,14.70
2022-08-11T00:09:39.666Z,14.70
2022-08-11T00:12:18.222Z,14.80
2022-08-11T00:14:46.660Z,14.80
2022-08-11T00:17:15.979Z,14.80
2022-08-11T00:20:13.185Z,14.80
2022-08-11T00:22:35.644Z,14.80
2022-08-11T00:25:20.631Z,14.70
2022-08-11T00:27:48.533Z,14.70
2022-08-11T00:30:16.480Z,14.70
2022-08-11T00:32:47.905Z,14.70
2022-08-11T00:35:55.089Z,14.60
2022-08-11T00:40:45.911Z,14.50
2022-08-11T00:43:23.989Z,14.60
2022-08-11T00:46:25.760Z,14.60
2022-08-11T00:49:26.042Z,14.50
2022-08-11T00:52:05.471Z,14.50
2022-08-11T00:55:15.799Z,14.60
2022-08-11T00:58:21.792Z,14.50
2022-08-11T01:01:13.654Z,14.60
2022-08-11T01:03:46.992Z,14.60
2022-08-11T01:06:38.123Z,14.70
2022-08-11T01:09:49.969Z,14.60
2022-08-11T01:12:22.695Z,14.70
2022-08-11T01:15:27.759Z,14.60
2022-08-11T01:18:13.104Z,14.60
2022-08-11T01:21:01.760Z,14.60
2022-08-11T01:23:28.634Z,14.60
2022-08-11T01:26:33.149Z,14.60
2022-08-11T01:29:39.524Z,14.60
2022-08-11T01:32:30.507Z,14.50
2022-08-11T01:35:28.554Z,14.50
2022-08-11T01:38:20.420Z,14.40
2022-08-11T01:40:56.488Z,14.40
2022-08-11T01:44:12.719Z,14.40
2022-08-11T01:46:51.468Z,14.30
2022-08-11T01:50:08.993Z,14.30
2022-08-11T01:52:33.380Z,14.30
2022-08-11T01:55:12.738Z,14.30
2022-08-11T01:58:02.886Z,14.20
2022-08-11T02:00:32.559Z,14.20
2022-08-11T02:03:20.453Z,14.20
2022-08-11T02:06:42.865Z,14.20
2022-08-11T02:09:51.818Z,14.20
2022-08-11T02:12:32.382Z,14.20
2022-08-11T02:15:15.455Z,14.20
2022-08-11T02:17:59.102Z,14.20
2022-08-11T02:21:02.459Z,14.10
2022-08-11T02:24:05.114Z,14.10
2022-08-11T02:26:50.540Z,14.20
2022-08-11T02:29:28.760Z,14.10
2022-08-11T02:32:39.490Z,14.20
2022-08-11T02:35:19.974Z,14.20
2022-08-11T02:38:16.014Z,14.20
2022-08-11T02:41:30.966Z,14.20
2022-08-11T02:44:32.825Z,14.20
2022-08-11T02:47:31.534Z,14.20
2022-08-11T02:50:23.692Z,14.20
2022-08-11T02:53:09.368Z,14.20
2022-08-11T02:55:58.425Z,14.20
2022-08-11T02:59:12.770Z,14.30
2022-08-11T03:02:04.768Z,14.30
2022-08-11T03:04:49.980Z,14.30
2022-08-11T03:07:29.508Z,14.30
2022-08-11T03:10:32.573Z,14.30
2022-08-11T03:13:36.317Z,14.30
2022-08-11T03:16:45.968Z,14.30
2022-08-11T03:19:25.511Z,14.30
2022-08-11T03:22:17.305Z,14.30
2022-08-11T03:25:01.945Z,14.30
2022-08-11T03:28:18.643Z,14.30
2022-08-11T03:31:16.364Z,14.30
2022-08-11T03:34:08.289Z,14.30
2022-08-11T03:36:36.821Z,14.30
2022-08-11T03:39:56.805Z,14.30
2022-08-11T03:42:47.444Z,14.40
2022-08-11T03:45:28.678Z,14.40
2022-08-11T03:48:23.327Z,14.50
2022-08-11T03:51:07.253Z,14.50
2022-08-11T03:54:10.943Z,14.50
2022-08-11T03:57:00.611Z,14.60
2022-08-11T03:59:46.454Z,14.90
2022-08-11T04:02:30.034Z,15.60
2022-08-11T04:05:18.553Z,16.40
2022-08-11T04:08:00.685Z,17.00
2022-08-11T04:10:46.392Z,18.30
2022-08-11T04:13:50.382Z,19.60
2022-08-11T04:16:44.712Z,20.70
2022-08-11T04:19:36.603Z,21.70
2022-08-11T04:22:21.720Z,22.00
2022-08-11T04:25:00.596Z,22.40
2022-08-11T04:30:14.907Z,21.40
2022-08-11T04:32:59.796Z,20.40
2022-08-11T04:39:10.873Z,19.00
2022-08-11T04:42:16.371Z,18.70
2022-08-11T04:44:52.401Z,18.90
2022-08-11T04:48:01.406Z,19.10
2022-08-11T04:51:21.300Z,19.70
2022-08-11T04:54:50.552Z,21.80
2022-08-11T04:58:02.464Z,23.50
2022-08-11T05:01:18.777Z,25.10
2022-08-11T05:04:32.602Z,25.80
2022-08-11T05:07:23.595Z,26.10
2022-08-11T05:10:02.583Z,25.40
2022-08-11T05:12:32.676Z,23.80
2022-08-11T05:15:18.877Z,22.60
2022-08-11T05:18:23.573Z,21.80
2022-08-11T05:21:15.102Z,21.00
2022-08-11T05:24:14.984Z,20.60
2022-08-11T05:27:09.940Z,20.20
2022-08-11T05:30:04.914Z,19.90
2022-08-11T05:33:04.369Z,19.80
2022-08-11T05:36:03.117Z,19.80
2022-08-11T05:38:54.477Z,19.70
2022-08-11T05:41:43.866Z,19.60
2022-08-11T05:44:30.428Z,19.70
2022-08-11T05:47:16.719Z,19.60
2022-08-11T05:50:13.804Z,19.60
2022-08-11T05:53:09.163Z,19.60
2022-08-11T05:56:03.932Z,19.60
2022-08-11T05:58:45.598Z,19.60
2022-08-11T06:01:15.007Z,19.60
2022-08-11T06:04:04.285Z,19.60
2022-08-11T06:06:32.184Z,19.50
2022-08-11T06:09:01.165Z,19.60
2022-08-11T06:11:43.103Z,19.50
2022-08-11T06:14:11.790Z,19.50
2022-08-11T06:16:40.843Z,19.60
2022-08-11T06:19:09.527Z,19.60
2022-08-11T06:21:36.976Z,19.60
2022-08-11T06:24:16.914Z,19.60
2022-08-11T06:27:11.770Z,19.50
2022-08-11T06:29:55.007Z,19.60
2022-08-11T06:32:33.077Z,19.50
2022-08-11T06:35:38.336Z,19.60
2022-08-11T06:38:27.075Z,19.60
2022-08-11T06:41:18.059Z,19.60
2022-08-11T06:43:55.570Z,19.70
2022-08-11T06:46:39.185Z,19.60
2022-08-11T06:49:28.552Z,19.60
2022-08-11T06:52:01.586Z,19.60
2022-08-11T06:54:42.138Z,19.70
2022-08-11T06:57:34.133Z,19.60
2022-08-11T07:00:20.398Z,19.60
2022-08-11T07:03:02.281Z,19.70
2022-08-11T07:05:38.486Z,19.70
2022-08-11T07:08:46.939Z,19.70
2022-08-11T07:15:00.034Z,19.80
2022-08-11T07:17:29.443Z,19.90
2022-08-11T07:20:22.182Z,19.90
2022-08-11T07:23:17.925Z,19.90
2022-08-11T07:26:08.695Z,19.90
2022-08-11T07:28:58.095Z,19.90
2022-08-11T07:31:29.588Z,19.90
2022-08-11T07:34:15.864Z,19.90
2022-08-11T07:36:57.756Z,19.90
2022-08-11T07:39:27.291Z,20.10
2022-08-11T07:41:57.673Z,20.10
2022-08-11T07:44:35.417Z,20.20
2022-08-11T07:47:21.558Z,20.30
2022-08-11T07:50:09.040Z,20.50
2022-08-11T07:52:38.469Z,20.70
2022-08-11T07:55:50.263Z,21.10
2022-08-11T07:58:34.097Z,21.30
2022-08-11T08:01:36.081Z,21.60
2022-08-11T08:04:23.801Z,21.90
2022-08-11T08:10:09.371Z,22.20
2022-08-11T08:13:03.634Z,22.40
2022-08-11T08:15:51.489Z,22.60
2022-08-11T08:18:26.675Z,23.00
2022-08-11T08:20:56.982Z,23.00
2022-08-11T08:23:34.239Z,23.10
2022-08-11T08:26:05.119Z,23.10
2022-08-11T08:28:33.751Z,23.10
2022-08-11T08:31:01.260Z,23.00
2022-08-11T08:33:31.423Z,23.10
2022-08-11T08:36:17.053Z,23.30
2022-08-11T08:38:54.347Z,23.40
2022-08-11T08:41:25.472Z,23.50
2022-08-11T08:47:01.691Z,23.70
2022-08-11T08:49:40.584Z,23.70
2022-08-11T08:52:26.081Z,23.80
2022-08-11T08:55:08.524Z,24.00
2022-08-11T08:57:39.883Z,23.90
2022-08-11T09:00:09.002Z,24.00
2022-08-11T09:02:42.194Z,24.10
2022-08-11T09:05:12.959Z,24.10
2022-08-11T09:07:41.209Z,24.10
2022-08-11T09:10:13.951Z,24.00
2022-08-11T09:12:45.016Z,24.00
2022-08-11T09:15:13.430Z,23.80
2022-08-11T09:17:47.196Z,23.80
2022-08-11T09:20:24.866Z,23.80
2022-08-11T09:26:21.746Z,24.00
2022-08-11T09:28:50.211Z,24.00
2022-08-11T09:31:17.704Z,24.00
2022-08-11T09:33:51.480Z,24.00
2022-08-11T09:36:38.830Z,23.90
2022-08-11T09:39:31.072Z,23.90
2022-08-11T09:42:03.396Z,23.80
2022-08-11T09:44:53.048Z,23.90
2022-08-11T09:47:24.629Z,24.00
2022-08-11T09:49:56.299Z,24.00
2022-08-11T09:52:24.990Z,23.90
2022-08-11T09:54:53.678Z,24.00
2022-08-11T09:57:43.858Z,24.00
2022-08-11T10:00:14.192Z,24.00
2022-08-11T10:02:48.875Z,24.00
2022-08-11T10:05:38.565Z,24.10
2022-08-11T10:08:26.313Z,24.10
2022-08-11T10:10:54.854Z,24.10
2022-08-11T10:14:04.812Z,24.20
2022-08-11T10:16:15.788Z,24.20
2022-08-11T10:19:03.628Z,24.20
2022-08-11T10:21:44.037Z,24.20
2022-08-11T10:24:31.404Z,24.00
2022-08-11T10:27:00.630Z,24.00
2022-08-11T10:29:49.687Z,24.00
2022-08-11T10:32:57.910Z,23.90
2022-08-11T10:35:31.800Z,24.00
2022-08-11T10:38:08.984Z,24.00
2022-08-11T10:40:39.986Z,24.10
2022-08-11T10:43:14.283Z,24.10
2022-08-11T10:46:03.893Z,24.00
2022-08-11T10:48:36.596Z,23.90
2022-08-11T10:51:14.005Z,23.90
2022-08-11T10:54:12.340Z,23.90
2022-08-11T10:56:58.833Z,23.90
2022-08-11T10:59:30.088Z,24.00
2022-08-11T11:01:59.175Z,23.90
2022-08-11T11:04:50.956Z,23.80
2022-08-11T11:07:24.254Z,23.80
2022-08-11T11:09:57.655Z,23.80
2022-08-11T11:12:44.301Z,23.80
2022-08-11T11:15:31.712Z,23.90
2022-08-11T11:18:11.618Z,23.90
2022-08-11T11:20:46.582Z,23.70
2022-08-11T11:23:20.232Z,23.70
2022-08-11T11:26:27.147Z,23.60
2022-08-11T11:29:20.587Z,23.60
2022-08-11T11:35:14.929Z,23.60
2022-08-11T11:38:00.086Z,23.60
2022-08-11T11:40:32.805Z,23.60
2022-08-11T11:43:01.301Z,23.70
2022-08-11T11:45:28.531Z,23.70
2022-08-11T11:47:59.293Z,23.70
2022-08-11T11:50:34.842Z,23.70
2022-08-11T11:53:07.946Z,23.70
2022-08-11T11:55:36.279Z,23.80
2022-08-11T11:58:24.320Z,23.80
2022-08-11T12:01:14.521Z,23.60
2022-08-11T12:03:43.794Z,23.40
2022-08-11T12:06:14.478Z,23.30
2022-08-11T12:08:42.908Z,23.20
2022-08-11T12:11:31.097Z,23.10
2022-08-11T12:14:03.208Z,23.20
2022-08-11T12:16:40.799Z,23.30
2022-08-11T12:19:14.426Z,23.30
2022-08-11T12:22:01.525Z,23.30
2022-08-11T12:24:51.566Z,23.20
2022-08-11T12:27:24.873Z,23.00
2022-08-11T12:29:56.241Z,23.00
2022-08-11T12:32:30.272Z,22.80
2022-08-11T12:34:58.027Z,22.80
2022-08-11T12:37:30.518Z,22.70
2022-08-11T12:40:43.732Z,22.70
2022-08-11T12:43:38.236Z,22.90
2022-08-11T12:46:32.039Z,22.80
2022-08-11T12:49:45.228Z,22.90
2022-08-11T12:52:21.164Z,22.80
2022-08-11T12:55:02.026Z,22.90
2022-08-11T12:57:55.073Z,22.90
2022-08-11T13:00:42.590Z,22.90
2022-08-11T13:03:30.032Z,22.80
2022-08-11T13:05:59.781Z,22.70
2022-08-11T13:08:29.745Z,22.80
2022-08-11T13:11:17.371Z,22.70
2022-08-11T13:13:54.100Z,22.50
2022-08-11T13:16:25.483Z,22.40
2022-08-11T13:18:53.418Z,22.30
2022-08-11T13:21:22.191Z,22.20
2022-08-11T13:24:00.793Z,22.30
2022-08-11T13:26:47.426Z,22.40
2022-08-11T13:29:20.143Z,22.60
2022-08-11T13:31:48.273Z,22.50
2022-08-11T13:36:52.510Z,22.30
2022-08-11T13:39:22.960Z,22.30
2022-08-11T13:41:53.696Z,22.30
2022-08-11T13:44:25.631Z,22.20
2022-08-11T13:49:48.423Z,22.10
2022-08-11T13:52:19.708Z,22.20
2022-08-11T13:54:48.445Z,22.30
2022-08-11T13:58:18.289Z,22.40
2022-08-11T14:00:23.492Z,22.40
2022-08-11T14:02:57.139Z,22.30
2022-08-11T14:05:39.092Z,22.30
2022-08-11T14:08:37.391Z,22.20
2022-08-11T14:12:21.517Z,22.30
2022-08-11T14:14:21.557Z,22.20
2022-08-11T14:16:51.324Z,22.20
2022-08-11T14:19:22.968Z,22.30
2022-08-11T14:22:11.515Z,22.20
2022-08-11T14:24:43.670Z,22.20
2022-08-11T14:28:30.644Z,22.00
2022-08-11T14:30:00.920Z,21.90
2022-08-11T14:32:28.055Z,21.90
2022-08-11T14:34:59.514Z,21.80
2022-08-11T14:37:34.777Z,21.80
2022-08-11T14:40:22.488Z,21.80
2022-08-11T14:45:58.066Z,21.80
2022-08-11T14:48:27.295Z,21.90
2022-08-11T14:50:54.685Z,21.70
2022-08-11T14:53:23.506Z,21.70
2022-08-11T14:56:10.709Z,21.70
2022-08-11T14:58:39.913Z,21.70
2022-08-11T15:01:27.112Z,21.70
2022-08-11T15:04:34.060Z,21.80
2022-08-11T15:06:43.497Z,21.80
2022-08-11T15:09:11.207Z,21.80
2022-08-11T15:11:57.806Z,21.70
2022-08-11T15:14:44.428Z,21.70
2022-08-11T15:17:13.293Z,21.70
2022-08-11T15:20:02.314Z,21.70
2022-08-11T15:22:48.155Z,21.70
2022-08-11T15:25:15.285Z,21.60
2022-08-11T15:28:03.810Z,21.60
2022-08-11T15:30:49.501Z,21.60
2022-08-11T15:33:38.357Z,21.50
2022-08-11T15:36:48.046Z,21.40
2022-08-11T15:39:23.396Z,21.30
2022-08-11T15:42:34.039Z,21.30
2022-08-11T15:45:27.301Z,21.30
2022-08-11T15:50:42.544Z,21.30
2022-08-11T15:53:18.532Z,21.30
2022-08-11T15:55:48.112Z,21.30
2022-08-11T15:59:10.817Z,21.30
2022-08-11T16:02:02.430Z,21.30
2022-08-11T16:04:31.581Z,21.20
2022-08-11T16:07:06.215Z,21.20
2022-08-11T16:09:47.663Z,21.10
2022-08-11T16:12:28.992Z,21.00
2022-08-11T16:15:20.275Z,21.10
2022-08-11T16:17:59.605Z,21.00
2022-08-11T16:20:29.449Z,21.00
2022-08-11T16:23:06.734Z,21.00
2022-08-11T16:27:04.133Z,20.90
2022-08-11T16:28:24.646Z,20.90
2022-08-11T16:30:54.032Z,20.90
2022-08-11T16:33:49.985Z,20.80
2022-08-11T16:36:31.844Z,20.80
2022-08-11T16:39:01.831Z,20.80
2022-08-11T16:41:50.798Z,20.70
2022-08-11T16:44:38.900Z,20.70
2022-08-11T16:47:16.592Z,20.70
2022-08-11T16:49:52.861Z,20.70
2022-08-11T16:52:22.511Z,20.70
2022-08-11T16:54:49.838Z,20.70
2022-08-11T16:57:45.505Z,20.60
2022-08-11T17:00:17.666Z,20.60
2022-08-11T17:03:12.586Z,20.60
2022-08-11T17:06:11.361Z,20.60
2022-08-11T17:09:06.665Z,20.60
2022-08-11T17:11:59.652Z,20.50
2022-08-11T17:14:37.052Z,20.50
2022-08-11T17:17:11.489Z,20.50
2022-08-11T17:20:41.350Z,20.50
2022-08-11T17:22:51.062Z,20.50
2022-08-11T17:25:19.593Z,20.40
2022-08-11T17:27:48.846Z,20.40
2022-08-11T17:30:16.652Z,20.30
2022-08-11T17:33:08.100Z,20.30
2022-08-11T17:35:42.684Z,20.20
2022-08-11T17:38:16.154Z,20.20
2022-08-11T17:41:08.350Z,20.10
2022-08-11T17:43:54.317Z,20.10
2022-08-11T17:46:40.553Z,20.00
2022-08-11T17:49:10.218Z,20.00
2022-08-11T17:51:57.578Z,20.00
2022-08-11T17:54:46.487Z,19.90
2022-08-11T17:57:34.480Z,19.90
2022-08-11T18:00:03.932Z,19.90
2022-08-11T18:02:52.975Z,19.80
2022-08-11T18:05:21.990Z,19.80
2022-08-11T18:08:14.197Z,19.70
2022-08-11T18:11:00.550Z,19.70
2022-08-11T18:13:50.472Z,19.60
2022-08-11T18:16:38.260Z,19.60
2022-08-11T18:19:26.353Z,19.60
2022-08-11T18:22:23.999Z,19.50
2022-08-11T18:25:15.952Z,19.50
2022-08-11T18:28:05.327Z,19.40
2022-08-11T18:31:03.111Z,19.40
2022-08-11T18:34:09.760Z,19.30
2022-08-11T18:37:27.267Z,19.30
2022-08-11T18:40:28.388Z,19.20
2022-08-11T18:43:21.033Z,19.20
2022-08-11T18:46:14.081Z,19.20
2022-08-11T18:49:15.411Z,19.20
2022-08-11T18:52:06.690Z,19.10
2022-08-11T18:54:55.731Z,19.10
2022-08-11T18:57:54.066Z,19.10
2022-08-11T19:00:41.354Z,19.00
2022-08-11T19:03:29.496Z,19.00
2022-08-11T19:06:39.322Z,19.00
2022-08-11T19:09:33.557Z,18.90
2022-08-11T19:12:20.924Z,18.90
2022-08-11T19:15:09.470Z,18.80
2022-08-11T19:17:58.947Z,18.80
2022-08-11T19:20:47.287Z,18.80
2022-08-11T19:23:38.869Z,18.80
2022-08-11T19:26:26.517Z,18.80
2022-08-11T19:30:09.079Z,18.70
2022-08-11T19:32:22.317Z,18.60
2022-08-11T19:35:09.835Z,18.60
2022-08-11T19:37:57.740Z,18.60
2022-08-11T19:40:43.866Z,18.60
2022-08-11T19:43:31.293Z,18.60
2022-08-11T19:46:19.661Z,18.50
2022-08-11T19:49:12.385Z,18.50
2022-08-11T19:51:59.369Z,18.50
2022-08-11T19:54:48.821Z,18.50
2022-08-11T19:57:39.536Z,18.50
2022-08-11T20:00:30.506Z,18.40
2022-08-11T20:03:19.121Z,18.40
2022-08-11T20:06:07.133Z,18.40
2022-08-11T20:08:58.650Z,18.30
2022-08-11T20:11:48.806Z,18.30
2022-08-11T20:14:36.923Z,18.30
2022-08-11T20:17:24.293Z,18.20
2022-08-11T20:20:10.967Z,18.20
2022-08-11T20:22:57.931Z,18.20
2022-08-11T20:25:44.814Z,18.10
2022-08-11T20:28:32.795Z,18.10
2022-08-11T20:31:18.146Z,18.10
2022-08-11T20:34:04.439Z,18.00
2022-08-11T20:36:54.912Z,18.00
2022-08-11T20:39:43.916Z,17.90
2022-08-11T20:42:39.979Z,17.90
2022-08-11T20:45:28.175Z,17.80
2022-08-11T20:48:16.122Z,17.80
2022-08-11T20:51:05.953Z,17.70
2022-08-11T20:54:05.552Z,17.70
2022-08-11T20:56:53.981Z,17.60
2022-08-11T20:59:56.278Z,17.60
2022-08-11T21:03:59.230Z,17.60
2022-08-11T21:06:47.755Z,17.50
2022-08-11T21:12:42.686Z,17.50
2022-08-11T21:15:38.665Z,17.50
2022-08-11T21:18:35.295Z,17.50
2022-08-11T21:21:25.074Z,17.50
2022-08-11T21:24:15.608Z,17.50
2022-08-11T21:27:05.329Z,17.50
2022-08-11T21:29:54.668Z,17.50
2022-08-11T21:32:43.482Z,17.40
2022-08-11T21:35:30.224Z,17.40
2022-08-11T21:38:17.429Z,17.30
2022-08-11T21:41:04.905Z,17.20
2022-08-11T21:43:51.279Z,17.20
2022-08-11T21:46:41.126Z,17.20
2022-08-11T21:49:29.432Z,17.20
2022-08-11T21:52:14.962Z,17.20
2022-08-11T21:55:01.496Z,17.10
2022-08-11T21:57:50.219Z,17.10
2022-08-11T22:00:36.224Z,17.00
2022-08-11T22:03:23.075Z,16.90
2022-08-11T22:06:09.847Z,16.90
2022-08-11T22:08:56.816Z,16.90
2022-08-11T22:11:42.778Z,16.80
2022-08-11T22:14:28.155Z,16.80
2022-08-11T22:17:14.069Z,16.80
2022-08-11T22:20:01.196Z,16.70
2022-08-11T22:22:52.912Z,16.70
2022-08-11T22:25:46.457Z,16.60
2022-08-11T22:28:37.954Z,16.60
2022-08-11T22:31:25.034Z,16.60
2022-08-11T22:34:10.816Z,16.60
2022-08-11T22:36:57.424Z,16.50
2022-08-11T22:39:45.156Z,16.50
2022-08-11T22:42:46.252Z,16.50
2022-08-11T22:45:31.865Z,16.40
2022-08-11T22:48:19.381Z,16.40
2022-08-11T22:51:05.537Z,16.40
2022-08-11T22:53:57.301Z,16.50
2022-08-11T22:56:44.718Z,16.50
2022-08-11T22:59:31.067Z,16.50
2022-08-11T23:02:16.774Z,16.50
2022-08-11T23:05:03.192Z,16.50
2022-08-11T23:07:52.060Z,16.40
2022-08-11T23:10:39.816Z,16.40
2022-08-11T23:13:26.564Z,16.40
2022-08-11T23:16:13.704Z,16.40
2022-08-11T23:19:01.249Z,16.30
2022-08-11T23:21:48.111Z,16.20
2022-08-11T23:24:34.473Z,16.20
2022-08-11T23:27:23.202Z,16.20
2022-08-11T23:30:10.984Z,16.10
2022-08-11T23:32:58.292Z,16.10
2022-08-11T23:35:53.543Z,16.20
2022-08-11T23:38:42.869Z,16.10
2022-08-11T23:41:29.184Z,16.10
2022-08-11T23:44:15.179Z,16.00
2022-08-11T23:47:00.978Z,16.10
2022-08-11T23:49:47.646Z,16.00
2022-08-11T23:52:34.547Z,16.00
2022-08-11T23:55:21.445Z,16.00
